sensor_id;sensor_type;location;lat;lon;timestamp;P1;durP1;ratioP1;P2;durP2;ratioP2
13067;SDS011;6600;51.362;6.686;2023-06-22T00:01:54;3.97;;;3.10;;
13067;SDS011;6600;51.362;6.686;2023-06-22T00:04:19;6.83;;;3.43;;
13067;SDS011;6600;51.362;6.686;2023-06-22T00:06:45;5.00;;;3.07;;
13067;SDS011;6600;51.362;6.686;2023-06-22T00:09:10;3.27;;;2.80;;
13067;SDS011;6600;51.362;6.686;2023-06-22T00:11:38;4.30;;;3.27;;
13067;SDS011;6600;51.362;6.686;2023-06-22T00:14:04;4.10;;;3.13;;
13067;SDS011;6600;51.362;6.686;2023-06-22T00:16:31;3.47;;;2.93;;
13067;SDS011;6600;51.362;6.686;2023-06-22T00:18:56;4.27;;;3.40;;
13067;SDS011;6600;51.362;6.686;2023-06-22T00:21:25;5.37;;;3.03;;
13067;SDS011;6600;51.362;6.686;2023-06-22T00:23:50;3.60;;;2.80;;
13067;SDS011;6600;51.362;6.686;2023-06-22T00:26:15;4.00;;;2.93;;
13067;SDS011;6600;51.362;6.686;2023-06-22T00:28:42;3.67;;;2.83;;
13067;SDS011;6600;51.362;6.686;2023-06-22T00:31:07;6.53;;;3.17;;
13067;SDS011;6600;51.362;6.686;2023-06-22T00:33:33;4.53;;;3.20;;
13067;SDS011;6600;51.362;6.686;2023-06-22T00:35:58;4.13;;;3.37;;
13067;SDS011;6600;51.362;6.686;2023-06-22T00:38:23;4.07;;;2.90;;
13067;SDS011;6600;51.362;6.686;2023-06-22T00:40:49;3.77;;;3.03;;
13067;SDS011;6600;51.362;6.686;2023-06-22T00:43:14;3.80;;;3.23;;
13067;SDS011;6600;51.362;6.686;2023-06-22T00:45:39;3.13;;;2.80;;
13067;SDS011;6600;51.362;6.686;2023-06-22T00:48:06;5.50;;;3.10;;
13067;SDS011;6600;51.362;6.686;2023-06-22T00:50:33;4.07;;;2.90;;
13067;SDS011;6600;51.362;6.686;2023-06-22T00:52:59;3.60;;;3.23;;
13067;SDS011;6600;51.362;6.686;2023-06-22T00:55:29;4.23;;;3.00;;
13067;SDS011;6600;51.362;6.686;2023-06-22T00:57:55;4.60;;;3.40;;
13067;SDS011;6600;51.362;6.686;2023-06-22T01:00:21;4.23;;;2.77;;
13067;SDS011;6600;51.362;6.686;2023-06-22T01:02:49;3.40;;;3.10;;
13067;SDS011;6600;51.362;6.686;2023-06-22T01:05:17;3.27;;;2.90;;
13067;SDS011;6600;51.362;6.686;2023-06-22T01:10:53;4.87;;;3.70;;
13067;SDS011;6600;51.362;6.686;2023-06-22T01:18:50;5.47;;;3.20;;
13067;SDS011;6600;51.362;6.686;2023-06-22T01:21:20;4.10;;;3.37;;
13067;SDS011;6600;51.362;6.686;2023-06-22T01:28:56;6.60;;;4.13;;
13067;SDS011;6600;51.362;6.686;2023-06-22T01:31:24;4.20;;;3.63;;
13067;SDS011;6600;51.362;6.686;2023-06-22T01:33:54;4.57;;;3.87;;
13067;SDS011;6600;51.362;6.686;2023-06-22T01:36:31;4.23;;;3.70;;
13067;SDS011;6600;51.362;6.686;2023-06-22T01:38:58;4.37;;;3.87;;
13067;SDS011;6600;51.362;6.686;2023-06-22T01:41:27;4.93;;;3.53;;
13067;SDS011;6600;51.362;6.686;2023-06-22T01:43:54;4.17;;;3.77;;
13067;SDS011;6600;51.362;6.686;2023-06-22T01:46:21;6.80;;;4.53;;
13067;SDS011;6600;51.362;6.686;2023-06-22T01:48:47;4.07;;;3.67;;
13067;SDS011;6600;51.362;6.686;2023-06-22T01:51:14;5.27;;;3.93;;
13067;SDS011;6600;51.362;6.686;2023-06-22T01:53:39;6.63;;;3.97;;
13067;SDS011;6600;51.362;6.686;2023-06-22T01:56:05;5.80;;;3.63;;
13067;SDS011;6600;51.362;6.686;2023-06-22T01:58:31;6.90;;;4.20;;
13067;SDS011;6600;51.362;6.686;2023-06-22T02:03:37;5.33;;;4.00;;
13067;SDS011;6600;51.362;6.686;2023-06-22T02:06:10;5.00;;;4.20;;
13067;SDS011;6600;51.362;6.686;2023-06-22T02:08:41;7.17;;;4.40;;
13067;SDS011;6600;51.362;6.686;2023-06-22T02:11:13;6.13;;;3.70;;
13067;SDS011;6600;51.362;6.686;2023-06-22T02:13:40;5.53;;;4.27;;
13067;SDS011;6600;51.362;6.686;2023-06-22T02:16:08;5.30;;;3.90;;
13067;SDS011;6600;51.362;6.686;2023-06-22T02:18:36;4.03;;;3.63;;
13067;SDS011;6600;51.362;6.686;2023-06-22T02:21:02;7.70;;;4.97;;
13067;SDS011;6600;51.362;6.686;2023-06-22T02:23:27;5.97;;;4.43;;
13067;SDS011;6600;51.362;6.686;2023-06-22T02:25:53;6.30;;;4.30;;
13067;SDS011;6600;51.362;6.686;2023-06-22T02:28:18;6.00;;;4.57;;
13067;SDS011;6600;51.362;6.686;2023-06-22T02:30:44;6.80;;;4.00;;
13067;SDS011;6600;51.362;6.686;2023-06-22T02:33:09;5.47;;;4.30;;
13067;SDS011;6600;51.362;6.686;2023-06-22T02:35:35;5.37;;;3.87;;
13067;SDS011;6600;51.362;6.686;2023-06-22T02:38:02;6.10;;;3.93;;
13067;SDS011;6600;51.362;6.686;2023-06-22T02:40:28;7.53;;;4.90;;
13067;SDS011;6600;51.362;6.686;2023-06-22T02:42:55;5.70;;;3.77;;
13067;SDS011;6600;51.362;6.686;2023-06-22T02:45:23;5.40;;;3.83;;
13067;SDS011;6600;51.362;6.686;2023-06-22T02:47:48;5.07;;;4.07;;
13067;SDS011;6600;51.362;6.686;2023-06-22T02:50:13;7.23;;;4.60;;
13067;SDS011;6600;51.362;6.686;2023-06-22T02:52:39;6.40;;;4.37;;
13067;SDS011;6600;51.362;6.686;2023-06-22T02:55:04;8.00;;;4.60;;
13067;SDS011;6600;51.362;6.686;2023-06-22T02:57:32;5.27;;;4.17;;
13067;SDS011;6600;51.362;6.686;2023-06-22T02:59:57;5.30;;;4.30;;
13067;SDS011;6600;51.362;6.686;2023-06-22T03:02:23;9.57;;;4.97;;
13067;SDS011;6600;51.362;6.686;2023-06-22T03:04:48;7.83;;;4.37;;
13067;SDS011;6600;51.362;6.686;2023-06-22T03:07:14;5.77;;;4.57;;
13067;SDS011;6600;51.362;6.686;2023-06-22T03:09:40;5.60;;;4.70;;
13067;SDS011;6600;51.362;6.686;2023-06-22T03:12:07;10.37;;;5.00;;
13067;SDS011;6600;51.362;6.686;2023-06-22T03:14:33;6.37;;;4.43;;
13067;SDS011;6600;51.362;6.686;2023-06-22T03:16:58;7.17;;;4.17;;
13067;SDS011;6600;51.362;6.686;2023-06-22T03:19:28;8.17;;;4.47;;
13067;SDS011;6600;51.362;6.686;2023-06-22T03:21:54;5.17;;;4.23;;
13067;SDS011;6600;51.362;6.686;2023-06-22T03:24:20;5.73;;;4.10;;
13067;SDS011;6600;51.362;6.686;2023-06-22T03:26:45;6.60;;;4.63;;
13067;SDS011;6600;51.362;6.686;2023-06-22T03:29:11;6.77;;;4.90;;
13067;SDS011;6600;51.362;6.686;2023-06-22T03:31:37;9.83;;;4.80;;
13067;SDS011;6600;51.362;6.686;2023-06-22T03:34:02;8.10;;;5.10;;
13067;SDS011;6600;51.362;6.686;2023-06-22T03:36:27;6.40;;;4.93;;
13067;SDS011;6600;51.362;6.686;2023-06-22T03:38:53;4.47;;;4.07;;
13067;SDS011;6600;51.362;6.686;2023-06-22T03:41:18;6.57;;;5.17;;
13067;SDS011;6600;51.362;6.686;2023-06-22T03:43:43;7.10;;;5.37;;
13067;SDS011;6600;51.362;6.686;2023-06-22T03:46:09;10.50;;;5.77;;
13067;SDS011;6600;51.362;6.686;2023-06-22T03:48:34;6.73;;;4.80;;
13067;SDS011;6600;51.362;6.686;2023-06-22T03:51:01;9.83;;;5.80;;
13067;SDS011;6600;51.362;6.686;2023-06-22T03:53:27;10.93;;;7.00;;
13067;SDS011;6600;51.362;6.686;2023-06-22T03:55:53;7.73;;;5.23;;
13067;SDS011;6600;51.362;6.686;2023-06-22T03:58:18;10.50;;;6.27;;
13067;SDS011;6600;51.362;6.686;2023-06-22T04:00:49;10.23;;;6.07;;
13067;SDS011;6600;51.362;6.686;2023-06-22T04:03:16;9.10;;;5.23;;
13067;SDS011;6600;51.362;6.686;2023-06-22T04:05:43;9.03;;;5.50;;
13067;SDS011;6600;51.362;6.686;2023-06-22T04:08:09;9.93;;;5.90;;
13067;SDS011;6600;51.362;6.686;2023-06-22T04:10:34;8.53;;;5.47;;
13067;SDS011;6600;51.362;6.686;2023-06-22T04:13:00;8.87;;;5.60;;
13067;SDS011;6600;51.362;6.686;2023-06-22T04:15:25;10.57;;;6.37;;
13067;SDS011;6600;51.362;6.686;2023-06-22T04:17:51;9.77;;;5.83;;
13067;SDS011;6600;51.362;6.686;2023-06-22T04:20:16;9.37;;;5.30;;
13067;SDS011;6600;51.362;6.686;2023-06-22T04:22:42;7.87;;;4.90;;
13067;SDS011;6600;51.362;6.686;2023-06-22T04:25:07;9.13;;;5.77;;
13067;SDS011;6600;51.362;6.686;2023-06-22T04:27:33;8.43;;;5.53;;
13067;SDS011;6600;51.362;6.686;2023-06-22T04:30:02;9.93;;;5.70;;
13067;SDS011;6600;51.362;6.686;2023-06-22T04:32:28;9.83;;;5.73;;
13067;SDS011;6600;51.362;6.686;2023-06-22T04:34:54;7.43;;;5.30;;
13067;SDS011;6600;51.362;6.686;2023-06-22T04:37:19;7.77;;;5.43;;
13067;SDS011;6600;51.362;6.686;2023-06-22T04:39:48;8.50;;;5.23;;
13067;SDS011;6600;51.362;6.686;2023-06-22T04:42:14;7.87;;;5.90;;
13067;SDS011;6600;51.362;6.686;2023-06-22T04:44:39;7.33;;;5.37;;
13067;SDS011;6600;51.362;6.686;2023-06-22T04:47:06;8.33;;;5.30;;
13067;SDS011;6600;51.362;6.686;2023-06-22T04:49:33;10.67;;;5.67;;
13067;SDS011;6600;51.362;6.686;2023-06-22T04:52:03;7.07;;;4.67;;
13067;SDS011;6600;51.362;6.686;2023-06-22T04:54:31;7.23;;;5.23;;
13067;SDS011;6600;51.362;6.686;2023-06-22T04:56:59;8.97;;;5.73;;
13067;SDS011;6600;51.362;6.686;2023-06-22T04:59:26;5.60;;;4.80;;
13067;SDS011;6600;51.362;6.686;2023-06-22T05:01:56;8.77;;;5.10;;
13067;SDS011;6600;51.362;6.686;2023-06-22T05:04:22;7.37;;;4.33;;
13067;SDS011;6600;51.362;6.686;2023-06-22T05:06:48;6.07;;;5.07;;
13067;SDS011;6600;51.362;6.686;2023-06-22T05:09:14;11.23;;;5.80;;
13067;SDS011;6600;51.362;6.686;2023-06-22T05:11:40;6.60;;;5.13;;
13067;SDS011;6600;51.362;6.686;2023-06-22T05:14:05;6.13;;;4.67;;
13067;SDS011;6600;51.362;6.686;2023-06-22T05:16:30;7.63;;;5.40;;
13067;SDS011;6600;51.362;6.686;2023-06-22T05:18:56;7.33;;;5.33;;
13067;SDS011;6600;51.362;6.686;2023-06-22T05:21:22;9.20;;;6.07;;
13067;SDS011;6600;51.362;6.686;2023-06-22T05:23:49;7.53;;;5.03;;
13067;SDS011;6600;51.362;6.686;2023-06-22T05:26:15;7.27;;;5.27;;
13067;SDS011;6600;51.362;6.686;2023-06-22T05:28:40;7.57;;;5.60;;
13067;SDS011;6600;51.362;6.686;2023-06-22T05:31:06;8.63;;;5.10;;
13067;SDS011;6600;51.362;6.686;2023-06-22T05:33:31;5.43;;;4.87;;
13067;SDS011;6600;51.362;6.686;2023-06-22T05:35:56;8.27;;;6.20;;
13067;SDS011;6600;51.362;6.686;2023-06-22T05:38:22;9.00;;;5.07;;
13067;SDS011;6600;51.362;6.686;2023-06-22T05:40:47;8.63;;;5.57;;
13067;SDS011;6600;51.362;6.686;2023-06-22T05:43:12;5.13;;;4.10;;
13067;SDS011;6600;51.362;6.686;2023-06-22T05:45:38;7.23;;;5.70;;
13067;SDS011;6600;51.362;6.686;2023-06-22T05:48:03;6.03;;;5.00;;
13067;SDS011;6600;51.362;6.686;2023-06-22T05:50:29;8.93;;;5.07;;
13067;SDS011;6600;51.362;6.686;2023-06-22T05:52:54;8.47;;;5.30;;
13067;SDS011;6600;51.362;6.686;2023-06-22T05:55:19;7.57;;;5.17;;
13067;SDS011;6600;51.362;6.686;2023-06-22T05:57:45;6.27;;;5.07;;
13067;SDS011;6600;51.362;6.686;2023-06-22T06:00:10;8.50;;;4.90;;
13067;SDS011;6600;51.362;6.686;2023-06-22T06:02:37;6.03;;;5.00;;
13067;SDS011;6600;51.362;6.686;2023-06-22T06:05:08;7.57;;;5.27;;
13067;SDS011;6600;51.362;6.686;2023-06-22T06:07:38;7.33;;;5.03;;
13067;SDS011;6600;51.362;6.686;2023-06-22T06:10:04;5.87;;;4.83;;
13067;SDS011;6600;51.362;6.686;2023-06-22T06:12:31;7.57;;;5.03;;
13067;SDS011;6600;51.362;6.686;2023-06-22T06:14:56;7.20;;;5.13;;
13067;SDS011;6600;51.362;6.686;2023-06-22T06:17:21;7.40;;;5.13;;
13067;SDS011;6600;51.362;6.686;2023-06-22T06:19:47;6.47;;;4.97;;
13067;SDS011;6600;51.362;6.686;2023-06-22T06:22:12;7.13;;;4.93;;
13067;SDS011;6600;51.362;6.686;2023-06-22T06:24:37;8.33;;;5.13;;
13067;SDS011;6600;51.362;6.686;2023-06-22T06:27:03;5.00;;;4.50;;
13067;SDS011;6600;51.362;6.686;2023-06-22T06:29:29;6.77;;;5.20;;
13067;SDS011;6600;51.362;6.686;2023-06-22T06:31:55;6.83;;;4.47;;
13067;SDS011;6600;51.362;6.686;2023-06-22T06:34:21;5.63;;;4.73;;
13067;SDS011;6600;51.362;6.686;2023-06-22T06:36:47;5.30;;;4.33;;
13067;SDS011;6600;51.362;6.686;2023-06-22T06:39:12;6.63;;;5.10;;
13067;SDS011;6600;51.362;6.686;2023-06-22T06:41:38;9.77;;;5.83;;
13067;SDS011;6600;51.362;6.686;2023-06-22T06:44:03;6.67;;;5.00;;
13067;SDS011;6600;51.362;6.686;2023-06-22T06:46:28;7.17;;;4.93;;
13067;SDS011;6600;51.362;6.686;2023-06-22T06:48:54;5.80;;;4.67;;
13067;SDS011;6600;51.362;6.686;2023-06-22T06:51:19;6.07;;;4.37;;
13067;SDS011;6600;51.362;6.686;2023-06-22T06:53:44;5.60;;;4.33;;
13067;SDS011;6600;51.362;6.686;2023-06-22T06:56:10;6.07;;;4.87;;
13067;SDS011;6600;51.362;6.686;2023-06-22T06:58:35;5.30;;;4.13;;
13067;SDS011;6600;51.362;6.686;2023-06-22T07:01:01;6.93;;;4.43;;
13067;SDS011;6600;51.362;6.686;2023-06-22T07:03:28;4.97;;;4.47;;
13067;SDS011;6600;51.362;6.686;2023-06-22T07:05:53;5.40;;;3.77;;
13067;SDS011;6600;51.362;6.686;2023-06-22T07:08:19;4.30;;;3.73;;
13067;SDS011;6600;51.362;6.686;2023-06-22T07:10:44;6.47;;;4.87;;
13067;SDS011;6600;51.362;6.686;2023-06-22T07:13:09;8.67;;;5.37;;
13067;SDS011;6600;51.362;6.686;2023-06-22T07:15:35;6.40;;;5.30;;
13067;SDS011;6600;51.362;6.686;2023-06-22T07:18:00;5.63;;;4.77;;
13067;SDS011;6600;51.362;6.686;2023-06-22T07:20:25;7.80;;;5.40;;
13067;SDS011;6600;51.362;6.686;2023-06-22T07:22:51;11.00;;;7.93;;
13067;SDS011;6600;51.362;6.686;2023-06-22T07:25:16;8.80;;;6.33;;
13067;SDS011;6600;51.362;6.686;2023-06-22T07:27:46;8.73;;;5.93;;
13067;SDS011;6600;51.362;6.686;2023-06-22T07:30:24;10.37;;;6.60;;
13067;SDS011;6600;51.362;6.686;2023-06-22T07:32:49;9.33;;;6.80;;
13067;SDS011;6600;51.362;6.686;2023-06-22T07:35:15;7.30;;;5.83;;
13067;SDS011;6600;51.362;6.686;2023-06-22T07:37:41;8.27;;;5.50;;
13067;SDS011;6600;51.362;6.686;2023-06-22T07:40:07;8.57;;;6.30;;
13067;SDS011;6600;51.362;6.686;2023-06-22T07:42:33;6.27;;;5.20;;
13067;SDS011;6600;51.362;6.686;2023-06-22T07:44:58;7.07;;;5.73;;
13067;SDS011;6600;51.362;6.686;2023-06-22T07:47:24;9.23;;;6.33;;
13067;SDS011;6600;51.362;6.686;2023-06-22T07:49:53;18.57;;;11.37;;
13067;SDS011;6600;51.362;6.686;2023-06-22T07:52:19;14.20;;;8.13;;
13067;SDS011;6600;51.362;6.686;2023-06-22T07:54:45;12.10;;;7.10;;
13067;SDS011;6600;51.362;6.686;2023-06-22T07:57:11;11.03;;;6.80;;
13067;SDS011;6600;51.362;6.686;2023-06-22T07:59:36;10.77;;;7.57;;
13067;SDS011;6600;51.362;6.686;2023-06-22T08:02:02;9.50;;;6.70;;
13067;SDS011;6600;51.362;6.686;2023-06-22T08:04:28;11.63;;;7.70;;
13067;SDS011;6600;51.362;6.686;2023-06-22T08:06:54;9.90;;;7.43;;
13067;SDS011;6600;51.362;6.686;2023-06-22T08:09:19;10.70;;;6.93;;
13067;SDS011;6600;51.362;6.686;2023-06-22T08:11:44;13.50;;;7.60;;
13067;SDS011;6600;51.362;6.686;2023-06-22T08:14:10;10.33;;;7.57;;
13067;SDS011;6600;51.362;6.686;2023-06-22T08:16:35;10.00;;;7.00;;
13067;SDS011;6600;51.362;6.686;2023-06-22T08:19:00;9.00;;;6.53;;
13067;SDS011;6600;51.362;6.686;2023-06-22T08:21:26;9.90;;;7.00;;
13067;SDS011;6600;51.362;6.686;2023-06-22T08:23:51;10.00;;;6.80;;
13067;SDS011;6600;51.362;6.686;2023-06-22T08:26:16;10.60;;;6.00;;
13067;SDS011;6600;51.362;6.686;2023-06-22T08:28:42;13.13;;;8.07;;
13067;SDS011;6600;51.362;6.686;2023-06-22T08:31:07;9.53;;;6.63;;
13067;SDS011;6600;51.362;6.686;2023-06-22T08:33:33;8.97;;;6.33;;
13067;SDS011;6600;51.362;6.686;2023-06-22T08:35:59;8.87;;;6.20;;
13067;SDS011;6600;51.362;6.686;2023-06-22T08:38:25;8.77;;;6.50;;
13067;SDS011;6600;51.362;6.686;2023-06-22T08:40:50;13.03;;;7.87;;
13067;SDS011;6600;51.362;6.686;2023-06-22T08:43:16;10.53;;;6.40;;
13067;SDS011;6600;51.362;6.686;2023-06-22T08:45:41;9.63;;;7.33;;
13067;SDS011;6600;51.362;6.686;2023-06-22T08:48:06;11.80;;;7.23;;
13067;SDS011;6600;51.362;6.686;2023-06-22T08:50:31;9.20;;;7.27;;
13067;SDS011;6600;51.362;6.686;2023-06-22T08:52:57;9.37;;;6.13;;
13067;SDS011;6600;51.362;6.686;2023-06-22T08:55:22;10.50;;;6.43;;
13067;SDS011;6600;51.362;6.686;2023-06-22T08:57:47;11.83;;;6.90;;
13067;SDS011;6600;51.362;6.686;2023-06-22T09:00:13;10.10;;;6.90;;
13067;SDS011;6600;51.362;6.686;2023-06-22T09:02:46;8.83;;;7.03;;
13067;SDS011;6600;51.362;6.686;2023-06-22T09:05:12;9.73;;;6.80;;
13067;SDS011;6600;51.362;6.686;2023-06-22T09:07:38;9.73;;;6.90;;
13067;SDS011;6600;51.362;6.686;2023-06-22T09:10:03;8.67;;;6.13;;
13067;SDS011;6600;51.362;6.686;2023-06-22T09:12:30;9.53;;;7.27;;
13067;SDS011;6600;51.362;6.686;2023-06-22T09:14:57;7.80;;;6.80;;
13067;SDS011;6600;51.362;6.686;2023-06-22T09:17:25;11.97;;;7.50;;
13067;SDS011;6600;51.362;6.686;2023-06-22T09:19:50;9.93;;;7.00;;
13067;SDS011;6600;51.362;6.686;2023-06-22T09:22:16;9.90;;;6.97;;
13067;SDS011;6600;51.362;6.686;2023-06-22T09:24:41;11.43;;;8.07;;
13067;SDS011;6600;51.362;6.686;2023-06-22T09:27:06;11.37;;;8.00;;
13067;SDS011;6600;51.362;6.686;2023-06-22T09:29:32;11.57;;;8.20;;
13067;SDS011;6600;51.362;6.686;2023-06-22T09:31:58;10.50;;;7.03;;
13067;SDS011;6600;51.362;6.686;2023-06-22T09:34:27;7.57;;;6.47;;
13067;SDS011;6600;51.362;6.686;2023-06-22T09:36:52;9.03;;;5.80;;
13067;SDS011;6600;51.362;6.686;2023-06-22T09:39:18;8.43;;;6.20;;
13067;SDS011;6600;51.362;6.686;2023-06-22T09:41:43;8.43;;;6.70;;
13067;SDS011;6600;51.362;6.686;2023-06-22T09:44:09;8.23;;;6.27;;
13067;SDS011;6600;51.362;6.686;2023-06-22T09:46:34;11.23;;;6.53;;
13067;SDS011;6600;51.362;6.686;2023-06-22T09:49:00;10.23;;;6.63;;
13067;SDS011;6600;51.362;6.686;2023-06-22T09:51:26;9.93;;;6.33;;
13067;SDS011;6600;51.362;6.686;2023-06-22T09:53:51;8.97;;;7.20;;
13067;SDS011;6600;51.362;6.686;2023-06-22T09:56:18;10.97;;;6.97;;
13067;SDS011;6600;51.362;6.686;2023-06-22T09:58:45;9.60;;;6.20;;
13067;SDS011;6600;51.362;6.686;2023-06-22T10:01:11;7.77;;;6.43;;
13067;SDS011;6600;51.362;6.686;2023-06-22T10:03:39;9.93;;;6.87;;
13067;SDS011;6600;51.362;6.686;2023-06-22T10:06:05;8.87;;;6.17;;
13067;SDS011;6600;51.362;6.686;2023-06-22T10:08:31;8.30;;;6.77;;
13067;SDS011;6600;51.362;6.686;2023-06-22T10:10:56;8.50;;;6.67;;
13067;SDS011;6600;51.362;6.686;2023-06-22T10:13:21;7.73;;;5.27;;
13067;SDS011;6600;51.362;6.686;2023-06-22T10:15:47;7.93;;;6.03;;
13067;SDS011;6600;51.362;6.686;2023-06-22T10:18:16;9.63;;;6.40;;
13067;SDS011;6600;51.362;6.686;2023-06-22T10:20:41;8.17;;;6.37;;
13067;SDS011;6600;51.362;6.686;2023-06-22T10:23:07;5.43;;;4.90;;
13067;SDS011;6600;51.362;6.686;2023-06-22T10:25:32;7.53;;;6.10;;
13067;SDS011;6600;51.362;6.686;2023-06-22T10:27:57;7.63;;;5.90;;
13067;SDS011;6600;51.362;6.686;2023-06-22T10:30:23;7.47;;;5.60;;
13067;SDS011;6600;51.362;6.686;2023-06-22T10:32:48;9.80;;;6.27;;
13067;SDS011;6600;51.362;6.686;2023-06-22T10:35:14;6.63;;;5.03;;
13067;SDS011;6600;51.362;6.686;2023-06-22T10:37:41;7.53;;;5.57;;
13067;SDS011;6600;51.362;6.686;2023-06-22T10:40:13;7.77;;;6.13;;
13067;SDS011;6600;51.362;6.686;2023-06-22T10:42:40;6.47;;;5.33;;
13067;SDS011;6600;51.362;6.686;2023-06-22T10:45:06;9.23;;;6.10;;
13067;SDS011;6600;51.362;6.686;2023-06-22T10:47:33;4.83;;;4.27;;
13067;SDS011;6600;51.362;6.686;2023-06-22T10:49:58;7.97;;;5.53;;
13067;SDS011;6600;51.362;6.686;2023-06-22T10:52:24;5.47;;;4.40;;
13067;SDS011;6600;51.362;6.686;2023-06-22T10:54:49;7.77;;;5.40;;
13067;SDS011;6600;51.362;6.686;2023-06-22T10:57:14;7.17;;;5.50;;
13067;SDS011;6600;51.362;6.686;2023-06-22T10:59:40;8.23;;;5.63;;
13067;SDS011;6600;51.362;6.686;2023-06-22T11:02:05;7.27;;;5.57;;
13067;SDS011;6600;51.362;6.686;2023-06-22T11:04:30;9.83;;;5.83;;
13067;SDS011;6600;51.362;6.686;2023-06-22T11:06:56;6.50;;;5.60;;
13067;SDS011;6600;51.362;6.686;2023-06-22T11:09:21;8.90;;;6.37;;
13067;SDS011;6600;51.362;6.686;2023-06-22T11:11:47;8.03;;;5.50;;
13067;SDS011;6600;51.362;6.686;2023-06-22T11:14:14;6.20;;;5.30;;
13067;SDS011;6600;51.362;6.686;2023-06-22T11:16:39;6.97;;;5.27;;
13067;SDS011;6600;51.362;6.686;2023-06-22T11:19:04;7.90;;;5.90;;
13067;SDS011;6600;51.362;6.686;2023-06-22T11:21:30;7.83;;;6.07;;
13067;SDS011;6600;51.362;6.686;2023-06-22T11:23:56;10.77;;;7.13;;
13067;SDS011;6600;51.362;6.686;2023-06-22T11:26:22;13.67;;;7.63;;
13067;SDS011;6600;51.362;6.686;2023-06-22T11:28:48;11.53;;;8.47;;
13067;SDS011;6600;51.362;6.686;2023-06-22T11:31:13;11.30;;;7.83;;
13067;SDS011;6600;51.362;6.686;2023-06-22T11:33:39;12.03;;;8.90;;
13067;SDS011;6600;51.362;6.686;2023-06-22T11:36:04;12.73;;;8.40;;
13067;SDS011;6600;51.362;6.686;2023-06-22T11:38:30;11.80;;;7.63;;
13067;SDS011;6600;51.362;6.686;2023-06-22T11:40:55;11.17;;;7.00;;
13067;SDS011;6600;51.362;6.686;2023-06-22T11:43:22;14.30;;;9.40;;
13067;SDS011;6600;51.362;6.686;2023-06-22T11:45:47;14.63;;;9.27;;
13067;SDS011;6600;51.362;6.686;2023-06-22T11:48:13;10.20;;;7.23;;
13067;SDS011;6600;51.362;6.686;2023-06-22T11:50:38;10.90;;;7.60;;
13067;SDS011;6600;51.362;6.686;2023-06-22T11:53:04;13.20;;;8.83;;
13067;SDS011;6600;51.362;6.686;2023-06-22T11:55:29;11.93;;;8.57;;
13067;SDS011;6600;51.362;6.686;2023-06-22T11:57:55;13.50;;;9.93;;
13067;SDS011;6600;51.362;6.686;2023-06-22T12:00:23;12.63;;;9.20;;
13067;SDS011;6600;51.362;6.686;2023-06-22T12:02:49;13.27;;;9.37;;
13067;SDS011;6600;51.362;6.686;2023-06-22T12:05:19;14.47;;;9.10;;
13067;SDS011;6600;51.362;6.686;2023-06-22T12:07:46;12.63;;;9.23;;
13067;SDS011;6600;51.362;6.686;2023-06-22T12:10:11;11.73;;;8.87;;
13067;SDS011;6600;51.362;6.686;2023-06-22T12:12:36;15.03;;;10.13;;
13067;SDS011;6600;51.362;6.686;2023-06-22T12:15:02;14.37;;;9.13;;
13067;SDS011;6600;51.362;6.686;2023-06-22T12:17:29;19.30;;;11.13;;
13067;SDS011;6600;51.362;6.686;2023-06-22T12:19:55;16.37;;;10.40;;
13067;SDS011;6600;51.362;6.686;2023-06-22T12:22:20;18.10;;;10.53;;
13067;SDS011;6600;51.362;6.686;2023-06-22T12:24:45;20.97;;;12.30;;
13067;SDS011;6600;51.362;6.686;2023-06-22T12:27:11;19.23;;;12.23;;
13067;SDS011;6600;51.362;6.686;2023-06-22T12:29:36;17.07;;;11.83;;
13067;SDS011;6600;51.362;6.686;2023-06-22T12:32:01;19.57;;;12.40;;
13067;SDS011;6600;51.362;6.686;2023-06-22T12:34:27;17.37;;;12.47;;
13067;SDS011;6600;51.362;6.686;2023-06-22T12:36:52;20.67;;;12.63;;
13067;SDS011;6600;51.362;6.686;2023-06-22T12:39:19;16.93;;;11.83;;
13067;SDS011;6600;51.362;6.686;2023-06-22T12:41:45;20.67;;;11.97;;
13067;SDS011;6600;51.362;6.686;2023-06-22T12:44:10;19.80;;;12.10;;
13067;SDS011;6600;51.362;6.686;2023-06-22T12:46:35;18.67;;;11.10;;
13067;SDS011;6600;51.362;6.686;2023-06-22T12:49:03;18.43;;;11.47;;
13067;SDS011;6600;51.362;6.686;2023-06-22T12:51:31;18.63;;;11.43;;
13067;SDS011;6600;51.362;6.686;2023-06-22T12:53:56;22.20;;;12.10;;
13067;SDS011;6600;51.362;6.686;2023-06-22T12:56:22;15.00;;;10.37;;
13067;SDS011;6600;51.362;6.686;2023-06-22T12:58:47;16.17;;;11.30;;
13067;SDS011;6600;51.362;6.686;2023-06-22T13:01:13;18.77;;;11.73;;
13067;SDS011;6600;51.362;6.686;2023-06-22T13:03:38;17.80;;;11.40;;
13067;SDS011;6600;51.362;6.686;2023-06-22T13:06:04;15.70;;;10.70;;
13067;SDS011;6600;51.362;6.686;2023-06-22T13:08:29;17.23;;;11.67;;
13067;SDS011;6600;51.362;6.686;2023-06-22T13:10:54;18.80;;;11.43;;
13067;SDS011;6600;51.362;6.686;2023-06-22T13:13:23;17.07;;;10.63;;
13067;SDS011;6600;51.362;6.686;2023-06-22T13:15:49;17.77;;;11.73;;
13067;SDS011;6600;51.362;6.686;2023-06-22T13:18:15;16.27;;;10.80;;
13067;SDS011;6600;51.362;6.686;2023-06-22T13:20:41;13.87;;;10.83;;
13067;SDS011;6600;51.362;6.686;2023-06-22T13:23:06;15.13;;;10.07;;
13067;SDS011;6600;51.362;6.686;2023-06-22T13:25:32;16.20;;;11.47;;
13067;SDS011;6600;51.362;6.686;2023-06-22T13:27:57;18.40;;;12.37;;
13067;SDS011;6600;51.362;6.686;2023-06-22T13:30:22;16.43;;;11.50;;
13067;SDS011;6600;51.362;6.686;2023-06-22T13:32:48;20.03;;;12.57;;
13067;SDS011;6600;51.362;6.686;2023-06-22T13:35:13;17.87;;;11.23;;
13067;SDS011;6600;51.362;6.686;2023-06-22T13:37:39;22.17;;;14.40;;
13067;SDS011;6600;51.362;6.686;2023-06-22T13:40:07;19.27;;;12.97;;
13067;SDS011;6600;51.362;6.686;2023-06-22T13:42:33;21.23;;;11.70;;
13067;SDS011;6600;51.362;6.686;2023-06-22T13:44:59;24.80;;;13.50;;
13067;SDS011;6600;51.362;6.686;2023-06-22T13:47:24;21.33;;;12.60;;
13067;SDS011;6600;51.362;6.686;2023-06-22T13:49:49;20.63;;;12.70;;
13067;SDS011;6600;51.362;6.686;2023-06-22T13:52:15;17.20;;;11.37;;
13067;SDS011;6600;51.362;6.686;2023-06-22T13:54:40;22.27;;;13.23;;
13067;SDS011;6600;51.362;6.686;2023-06-22T13:57:05;19.20;;;12.93;;
13067;SDS011;6600;51.362;6.686;2023-06-22T13:59:31;17.97;;;11.93;;
13067;SDS011;6600;51.362;6.686;2023-06-22T14:01:56;19.03;;;11.87;;
13067;SDS011;6600;51.362;6.686;2023-06-22T14:04:25;19.30;;;12.43;;
13067;SDS011;6600;51.362;6.686;2023-06-22T14:06:50;19.37;;;12.03;;
13067;SDS011;6600;51.362;6.686;2023-06-22T14:09:16;18.83;;;12.00;;
13067;SDS011;6600;51.362;6.686;2023-06-22T14:11:41;17.37;;;12.10;;
13067;SDS011;6600;51.362;6.686;2023-06-22T14:14:06;18.37;;;12.40;;
13067;SDS011;6600;51.362;6.686;2023-06-22T14:16:32;17.70;;;11.87;;
13067;SDS011;6600;51.362;6.686;2023-06-22T14:18:57;18.17;;;12.23;;
13067;SDS011;6600;51.362;6.686;2023-06-22T14:21:22;17.10;;;12.00;;
13067;SDS011;6600;51.362;6.686;2023-06-22T14:23:48;17.53;;;11.47;;
13067;SDS011;6600;51.362;6.686;2023-06-22T14:26:17;17.37;;;11.43;;
13067;SDS011;6600;51.362;6.686;2023-06-22T14:28:45;18.03;;;12.00;;
13067;SDS011;6600;51.362;6.686;2023-06-22T14:31:16;17.03;;;11.33;;
13067;SDS011;6600;51.362;6.686;2023-06-22T14:33:46;18.13;;;11.93;;
13067;SDS011;6600;51.362;6.686;2023-06-22T14:36:13;19.47;;;12.63;;
13067;SDS011;6600;51.362;6.686;2023-06-22T14:38:39;16.27;;;11.60;;
13067;SDS011;6600;51.362;6.686;2023-06-22T14:41:04;19.90;;;11.77;;
13067;SDS011;6600;51.362;6.686;2023-06-22T14:43:29;16.70;;;11.70;;
13067;SDS011;6600;51.362;6.686;2023-06-22T14:45:55;17.80;;;11.93;;
13067;SDS011;6600;51.362;6.686;2023-06-22T14:48:20;18.33;;;11.20;;
13067;SDS011;6600;51.362;6.686;2023-06-22T14:50:46;17.53;;;12.33;;
13067;SDS011;6600;51.362;6.686;2023-06-22T14:53:11;16.00;;;11.37;;
13067;SDS011;6600;51.362;6.686;2023-06-22T14:55:36;19.03;;;12.17;;
13067;SDS011;6600;51.362;6.686;2023-06-22T14:58:02;16.13;;;10.60;;
13067;SDS011;6600;51.362;6.686;2023-06-22T15:00:27;17.10;;;10.83;;
13067;SDS011;6600;51.362;6.686;2023-06-22T15:02:52;17.57;;;11.60;;